createdAt,value
2022-11-16T00:00:43.431Z,24.33
2022-11-16T00:03:17.603Z,23.38
2022-11-16T00:06:09.444Z,24.55
2022-11-16T00:08:44.503Z,25.10
2022-11-16T00:11:32.423Z,23.55
2022-11-16T00:14:06.546Z,24.05
2022-11-16T00:16:54.435Z,23.88
2022-11-16T00:19:28.762Z,25.60
2022-11-16T00:22:16.421Z,24.25
2022-11-16T00:24:50.390Z,23.92
2022-11-16T00:27:38.437Z,23.98
2022-11-16T00:30:12.611Z,24.05
2022-11-16T00:33:06.439Z,24.52
2022-11-16T00:36:00.420Z,23.63
2022-11-16T00:38:48.431Z,24.48
2022-11-16T00:41:22.518Z,23.17
2022-11-16T00:44:10.422Z,23.65
2022-11-16T00:46:44.519Z,24.23
2022-11-16T00:49:32.405Z,23.95
2022-11-16T00:52:20.432Z,26.98
2022-11-16T00:54:54.391Z,24.00
2022-11-16T00:57:42.455Z,24.40
2022-11-16T01:00:17.751Z,25.88
2022-11-16T01:03:05.415Z,26.30
2022-11-16T01:05:39.564Z,25.40
2022-11-16T01:08:28.416Z,23.42
2022-11-16T01:11:21.032Z,24.90
2022-11-16T01:14:08.447Z,24.33
2022-11-16T01:16:42.413Z,26.27
2022-11-16T01:19:30.437Z,24.67
2022-11-16T01:22:11.440Z,24.60
2022-11-16T01:24:55.542Z,24.27
2022-11-16T01:27:35.424Z,25.70
2022-11-16T01:30:25.446Z,27.10
2022-11-16T01:35:47.423Z,22.27
2022-11-16T01:38:23.876Z,22.83
2022-11-16T01:41:13.438Z,25.23
2022-11-16T01:44:04.456Z,23.80
2022-11-16T01:46:52.422Z,24.60
2022-11-16T01:49:32.439Z,24.67
2022-11-16T01:52:23.430Z,22.58
2022-11-16T01:54:58.693Z,23.92
2022-11-16T01:57:49.449Z,17.38
2022-11-16T02:00:23.800Z,23.08
2022-11-16T02:03:11.444Z,21.48
2022-11-16T02:10:01.437Z,19.20
2022-11-16T02:12:55.739Z,12.60
2022-11-16T02:16:00.414Z,10.10
2022-11-16T02:18:42.020Z,6.05
2022-11-16T02:21:29.441Z,2.60
2022-11-16T02:24:06.552Z,2.47
2022-11-16T02:27:06.409Z,2.20
2022-11-16T02:32:38.413Z,1.73
2022-11-16T02:35:25.920Z,1.10
2022-11-16T02:38:48.405Z,1.60
2022-11-16T02:41:25.570Z,1.40
2022-11-16T02:44:18.417Z,1.08
2022-11-16T02:46:57.422Z,1.40
2022-11-16T02:49:49.418Z,1.08
2022-11-16T02:52:24.215Z,1.08
2022-11-16T02:55:11.417Z,0.88
2022-11-16T02:57:56.749Z,0.88
2022-11-16T03:00:50.482Z,1.35
2022-11-16T03:03:31.426Z,0.90
2022-11-16T03:06:25.411Z,0.98
2022-11-16T03:09:00.359Z,1.15
2022-11-16T03:12:07.414Z,0.80
2022-11-16T03:14:47.775Z,0.60
2022-11-16T03:17:42.386Z,0.70
2022-11-16T03:20:29.445Z,0.50
2022-11-16T03:23:22.411Z,0.93
2022-11-16T03:26:04.417Z,0.65
2022-11-16T03:29:01.439Z,0.90
2022-11-16T03:31:52.511Z,0.77
2022-11-16T03:34:45.443Z,0.77
2022-11-16T03:37:19.773Z,0.60
2022-11-16T03:40:07.431Z,0.68
2022-11-16T03:42:49.434Z,0.50
2022-11-16T03:45:30.507Z,0.70
2022-11-16T03:48:11.421Z,0.70
2022-11-16T03:50:52.513Z,0.43
2022-11-16T03:53:32.425Z,0.52
2022-11-16T03:56:13.912Z,0.47
2022-11-16T03:59:00.412Z,0.70
2022-11-16T04:01:34.510Z,0.60
2022-11-16T04:04:41.437Z,0.60
2022-11-16T04:07:47.435Z,0.50
2022-11-16T04:10:46.410Z,0.70
2022-11-16T04:13:56.431Z,0.90
2022-11-16T04:16:49.794Z,0.70
2022-11-16T04:19:58.118Z,0.55
2022-11-16T04:22:53.907Z,0.60
2022-11-16T04:25:44.439Z,0.85
2022-11-16T04:28:21.016Z,0.75
2022-11-16T04:31:28.419Z,0.47
2022-11-16T04:34:21.067Z,0.68
2022-11-16T04:37:26.412Z,0.85
2022-11-16T04:40:00.393Z,0.88
2022-11-16T04:42:48.422Z,0.93
2022-11-16T04:45:41.460Z,0.80
2022-11-16T04:48:30.442Z,0.90
2022-11-16T04:51:04.392Z,1.05
2022-11-16T04:53:52.452Z,0.70
2022-11-16T04:56:26.408Z,0.63
2022-11-16T04:59:14.439Z,0.93
2022-11-16T05:02:13.424Z,0.88
2022-11-16T05:04:54.580Z,0.95
2022-11-16T05:07:42.442Z,0.98
2022-11-16T05:10:16.558Z,0.95
2022-11-16T05:13:04.435Z,0.85
2022-11-16T05:15:38.507Z,0.77
2022-11-16T05:18:25.442Z,0.82
2022-11-16T05:21:02.375Z,0.35
2022-11-16T05:24:08.434Z,0.28
2022-11-16T05:26:42.513Z,0.35
2022-11-16T05:29:30.506Z,0.38
2022-11-16T05:32:04.528Z,0.60
2022-11-16T05:34:52.429Z,0.38
2022-11-16T05:37:33.442Z,0.40
2022-11-16T05:40:27.430Z,0.30
2022-11-16T05:43:14.433Z,0.50
2022-11-16T05:45:56.428Z,0.30
2022-11-16T05:48:43.428Z,0.50
2022-11-16T05:51:17.536Z,0.30
2022-11-16T05:54:04.442Z,0.70
2022-11-16T05:56:39.649Z,0.60
2022-11-16T05:59:28.451Z,0.55
2022-11-16T06:02:16.419Z,1.48
2022-11-16T06:04:50.410Z,0.73
2022-11-16T06:07:38.492Z,0.85
2022-11-16T06:10:19.466Z,0.85
2022-11-16T06:13:00.527Z,0.30
2022-11-16T06:15:50.447Z,0.60
2022-11-16T06:18:31.946Z,0.50
2022-11-16T06:21:13.470Z,0.70
2022-11-16T06:23:55.587Z,0.38
2022-11-16T06:26:44.456Z,0.50
2022-11-16T06:29:25.542Z,0.55
2022-11-16T06:32:05.468Z,0.60
2022-11-16T06:34:46.516Z,0.20
2022-11-16T06:37:26.466Z,0.50
2022-11-16T06:40:07.554Z,0.45
2022-11-16T06:42:48.472Z,0.50
2022-11-16T06:45:36.455Z,0.45
2022-11-16T06:48:10.410Z,0.50
2022-11-16T06:50:58.445Z,0.40
2022-11-16T06:53:32.421Z,0.40
2022-11-16T06:56:20.461Z,0.47
2022-11-16T06:59:03.469Z,0.40
2022-11-16T07:01:44.540Z,0.73
2022-11-16T07:04:25.456Z,0.57
2022-11-16T07:07:06.563Z,0.30
2022-11-16T07:09:47.460Z,0.60
2022-11-16T07:12:35.462Z,0.60
2022-11-16T07:15:09.724Z,1.20
2022-11-16T07:17:57.464Z,1.02
2022-11-16T07:20:31.785Z,1.63
2022-11-16T07:23:19.460Z,1.70
2022-11-16T07:25:53.402Z,1.58
2022-11-16T07:28:47.918Z,1.90
2022-11-16T07:31:22.408Z,1.92
2022-11-16T07:34:10.461Z,2.88
2022-11-16T07:36:50.462Z,1.23
2022-11-16T07:39:38.442Z,2.00
2022-11-16T07:42:12.490Z,1.42
2022-11-16T07:45:00.446Z,1.77
2022-11-16T07:47:44.478Z,1.27
2022-11-16T07:50:32.479Z,1.25
2022-11-16T07:53:06.404Z,1.23
2022-11-16T07:55:54.464Z,1.80
2022-11-16T07:58:29.567Z,1.10
2022-11-16T08:01:18.509Z,1.05
2022-11-16T08:04:00.478Z,0.88
2022-11-16T08:06:41.536Z,1.13
2022-11-16T08:09:21.573Z,0.77
2022-11-16T08:12:09.464Z,0.82
2022-11-16T08:14:43.433Z,1.00
2022-11-16T08:17:31.459Z,0.90
2022-11-16T08:20:26.477Z,1.08
2022-11-16T08:23:13.471Z,1.05
2022-11-16T08:25:47.544Z,1.20
2022-11-16T08:28:35.752Z,0.77
2022-11-16T08:31:15.544Z,0.90
2022-11-16T08:34:03.466Z,1.27
2022-11-16T08:36:44.465Z,1.02
2022-11-16T08:39:38.455Z,1.08
2022-11-16T08:44:59.566Z,1.08
2022-11-16T08:47:40.481Z,0.60
2022-11-16T08:50:20.527Z,0.43
2022-11-16T08:53:01.475Z,0.30
2022-11-16T08:55:49.462Z,0.40
2022-11-16T08:58:30.722Z,0.40
2022-11-16T09:01:35.489Z,0.28
2022-11-16T09:04:25.443Z,0.30
2022-11-16T09:06:59.606Z,0.60
2022-11-16T09:09:46.437Z,0.35
2022-11-16T09:12:27.467Z,0.50
2022-11-16T09:15:15.446Z,0.40
2022-11-16T09:17:54.781Z,0.70
2022-11-16T09:20:42.454Z,0.85
2022-11-16T09:23:19.779Z,0.77
2022-11-16T09:26:12.474Z,1.00
2022-11-16T09:28:46.535Z,0.70
2022-11-16T09:31:34.474Z,0.70
2022-11-16T09:34:08.564Z,1.10
2022-11-16T09:36:55.452Z,1.00
2022-11-16T09:39:32.547Z,1.10
2022-11-16T09:45:08.470Z,1.08
2022-11-16T09:47:58.460Z,0.77
2022-11-16T09:50:32.782Z,1.02
2022-11-16T09:53:29.474Z,0.50
2022-11-16T09:56:05.006Z,0.43
2022-11-16T09:59:13.589Z,0.40
2022-11-16T10:02:29.470Z,0.88
2022-11-16T10:05:54.498Z,0.73
2022-11-16T10:08:48.599Z,0.60
2022-11-16T10:11:45.491Z,0.70
2022-11-16T10:14:35.474Z,0.82
2022-11-16T10:17:42.473Z,0.80
2022-11-16T10:20:38.474Z,0.68
2022-11-16T10:23:37.535Z,0.20
2022-11-16T10:26:48.476Z,0.43
2022-11-16T10:29:43.483Z,0.75
2022-11-16T10:32:20.799Z,0.47
2022-11-16T10:35:10.481Z,0.50
2022-11-16T10:37:53.591Z,0.50
2022-11-16T10:40:45.473Z,0.70
2022-11-16T10:43:25.610Z,0.45
2022-11-16T10:46:23.491Z,0.80
2022-11-16T10:49:44.489Z,0.50
2022-11-16T10:52:18.500Z,0.60
2022-11-16T10:55:06.739Z,0.38
2022-11-16T10:57:58.918Z,0.50
2022-11-16T11:00:50.489Z,0.60
2022-11-16T11:03:31.527Z,0.73
2022-11-16T11:06:20.479Z,0.52
2022-11-16T11:08:54.509Z,0.52
2022-11-16T11:12:00.489Z,0.68
2022-11-16T11:14:35.972Z,0.65
2022-11-16T11:17:25.651Z,0.50
2022-11-16T11:20:17.256Z,0.57
2022-11-16T11:23:05.475Z,0.40
2022-11-16T11:25:42.565Z,0.28
2022-11-16T11:28:51.493Z,0.50
2022-11-16T11:31:39.998Z,0.70
2022-11-16T11:34:23.454Z,0.80
2022-11-16T11:37:10.488Z,1.15
2022-11-16T11:39:44.496Z,1.50
2022-11-16T11:42:32.500Z,1.45
2022-11-16T11:45:09.047Z,2.38
2022-11-16T11:48:01.497Z,1.48
2022-11-16T11:50:58.472Z,1.65
2022-11-16T11:54:06.455Z,0.90
2022-11-16T11:56:40.562Z,1.00
2022-11-16T11:59:30.460Z,1.10
2022-11-16T12:02:29.786Z,0.95
2022-11-16T12:05:23.480Z,0.85
2022-11-16T12:08:03.591Z,1.80
2022-11-16T12:11:03.499Z,0.57
2022-11-16T12:13:43.545Z,0.88
2022-11-16T12:16:36.483Z,1.10
2022-11-16T12:19:32.551Z,1.35
2022-11-16T12:22:23.492Z,1.45
2022-11-16T12:25:09.558Z,1.42
2022-11-16T12:28:10.555Z,2.10
2022-11-16T12:30:56.641Z,1.30
2022-11-16T12:33:51.498Z,1.30
2022-11-16T12:36:38.470Z,2.30
2022-11-16T12:39:59.517Z,0.60
2022-11-16T12:43:05.478Z,0.77
2022-11-16T12:45:49.481Z,1.20
2022-11-16T12:48:49.479Z,1.58
2022-11-16T12:51:36.489Z,1.30
2022-11-16T12:54:13.564Z,1.23
2022-11-16T13:00:03.617Z,1.45
2022-11-16T13:03:02.497Z,1.98
2022-11-16T13:05:55.653Z,1.50
2022-11-16T13:08:43.496Z,1.30
2022-11-16T13:11:27.463Z,1.63
2022-11-16T13:14:26.511Z,1.50
2022-11-16T13:17:21.601Z,2.67
2022-11-16T13:20:22.519Z,2.65
2022-11-16T13:23:14.516Z,1.60
2022-11-16T13:25:52.175Z,2.45
2022-11-16T13:29:03.479Z,2.22
2022-11-16T13:31:47.505Z,1.35
2022-11-16T13:34:38.559Z,1.73
2022-11-16T13:37:42.655Z,2.10
2022-11-16T13:40:40.488Z,2.88
2022-11-16T13:43:29.472Z,3.33
2022-11-16T13:46:54.103Z,3.13
2022-11-16T13:49:30.630Z,1.70
2022-11-16T13:52:25.018Z,2.08
2022-11-16T13:55:32.510Z,4.75
2022-11-16T13:58:07.625Z,4.30
2022-11-16T14:01:21.563Z,6.40
2022-11-16T14:03:56.569Z,3.22
2022-11-16T14:06:50.543Z,2.50
2022-11-16T14:09:53.580Z,2.92
2022-11-16T14:13:01.484Z,2.42
2022-11-16T14:15:45.520Z,3.22
2022-11-16T14:18:47.504Z,2.10
2022-11-16T14:22:10.500Z,1.85
2022-11-16T14:24:48.574Z,1.80
2022-11-16T14:27:56.498Z,2.10
2022-11-16T14:30:35.630Z,1.98
2022-11-16T14:33:37.948Z,2.38
2022-11-16T14:36:14.621Z,2.15
2022-11-16T14:39:02.519Z,3.28
2022-11-16T14:41:36.605Z,1.85
2022-11-16T14:44:31.583Z,2.03
2022-11-16T14:47:05.617Z,3.00
2022-11-16T14:49:54.484Z,2.85
2022-11-16T14:52:44.537Z,3.90
2022-11-16T14:55:32.479Z,2.50
2022-11-16T14:58:15.602Z,1.95
2022-11-16T15:01:08.498Z,1.70
2022-11-16T15:03:55.614Z,8.30
2022-11-16T15:06:47.525Z,2.38
2022-11-16T15:09:46.504Z,2.70
2022-11-16T15:12:49.511Z,1.63
2022-11-16T15:15:38.487Z,1.55
2022-11-16T15:18:19.527Z,2.58
2022-11-16T15:21:13.482Z,1.30
2022-11-16T15:24:30.124Z,2.97
2022-11-16T15:27:01.500Z,2.17
2022-11-16T15:29:49.496Z,1.63
2022-11-16T15:32:23.611Z,1.35
2022-11-16T15:35:11.497Z,1.98
2022-11-16T15:37:45.636Z,1.50
2022-11-16T15:40:33.520Z,1.02
2022-11-16T15:43:08.627Z,1.50
2022-11-16T15:45:56.500Z,1.00
2022-11-16T15:48:31.727Z,0.98
2022-11-16T15:51:33.515Z,1.42
2022-11-16T15:54:56.841Z,2.47
2022-11-16T15:57:37.532Z,1.20
2022-11-16T16:00:28.629Z,1.48
2022-11-16T16:03:22.537Z,0.75
2022-11-16T16:06:03.611Z,3.28
2022-11-16T16:08:45.508Z,2.38
2022-11-16T16:11:26.967Z,2.78
2022-11-16T16:14:09.499Z,3.38
2022-11-16T16:16:50.503Z,3.78
2022-11-16T16:19:36.631Z,2.63
2022-11-16T16:22:39.518Z,3.85
2022-11-16T16:25:21.495Z,2.47
2022-11-16T16:28:09.512Z,2.33
2022-11-16T16:30:43.597Z,4.13
2022-11-16T16:33:35.799Z,1.23
2022-11-16T16:36:17.036Z,1.80
2022-11-16T16:38:56.520Z,1.88
2022-11-16T16:41:44.507Z,1.95
2022-11-16T16:44:24.515Z,1.45
2022-11-16T16:47:05.615Z,1.30
2022-11-16T16:49:46.518Z,1.58
2022-11-16T16:52:34.485Z,1.20
2022-11-16T16:55:08.756Z,2.00
2022-11-16T16:57:56.580Z,1.27
2022-11-16T17:00:37.560Z,1.13
2022-11-16T17:03:18.592Z,0.98
2022-11-16T17:06:00.520Z,1.30
2022-11-16T17:08:48.520Z,1.60
2022-11-16T17:11:28.515Z,1.40
2022-11-16T17:14:09.681Z,2.65
2022-11-16T17:16:49.509Z,3.47
2022-11-16T17:19:30.582Z,2.88
2022-11-16T17:22:10.534Z,1.30
2022-11-16T17:24:51.669Z,1.85
2022-11-16T17:27:31.539Z,1.42
2022-11-16T17:30:12.617Z,1.48
2022-11-16T17:32:52.555Z,1.50
2022-11-16T17:35:33.573Z,1.73
2022-11-16T17:38:13.609Z,1.88
2022-11-16T17:40:54.599Z,3.30
2022-11-16T17:43:34.812Z,2.40
2022-11-16T17:46:30.524Z,2.50
2022-11-16T17:49:04.515Z,1.58
2022-11-16T17:51:52.511Z,3.17
2022-11-16T17:54:32.531Z,2.45
2022-11-16T17:57:13.737Z,3.25
2022-11-16T17:59:54.543Z,2.47
2022-11-16T18:02:42.666Z,2.25
2022-11-16T18:05:16.483Z,3.08
2022-11-16T18:08:04.519Z,2.15
2022-11-16T18:10:39.139Z,2.63
2022-11-16T18:13:26.547Z,2.80
2022-11-16T18:16:12.580Z,3.15
2022-11-16T18:19:01.527Z,2.65
2022-11-16T18:21:48.580Z,3.28
2022-11-16T18:24:29.594Z,4.13
2022-11-16T18:27:09.542Z,4.10
2022-11-16T18:29:50.579Z,1.38
2022-11-16T18:32:31.538Z,2.85
2022-11-16T18:35:13.667Z,2.90
2022-11-16T18:37:53.528Z,2.63
2022-11-16T18:40:41.510Z,2.05
2022-11-16T18:43:15.474Z,3.42
2022-11-16T18:46:03.530Z,2.53
2022-11-16T18:48:37.548Z,2.72
2022-11-16T18:51:25.542Z,1.77
2022-11-16T18:53:59.540Z,2.60
2022-11-16T18:56:47.510Z,2.30
2022-11-16T18:59:21.539Z,2.58
2022-11-16T19:02:09.517Z,2.58
2022-11-16T19:04:43.495Z,2.08
2022-11-16T19:07:31.586Z,2.00
2022-11-16T19:10:05.668Z,1.90
2022-11-16T19:12:53.536Z,1.52
2022-11-16T19:15:27.473Z,1.90
2022-11-16T19:18:21.279Z,1.95
2022-11-16T19:21:28.516Z,1.80
2022-11-16T19:24:09.632Z,1.83
2022-11-16T19:26:50.565Z,2.55
2022-11-16T19:29:30.587Z,1.48
2022-11-16T19:32:11.648Z,1.80
2022-11-16T19:34:51.669Z,1.58
2022-11-16T19:37:32.532Z,1.58
2022-11-16T19:40:13.520Z,2.22
2022-11-16T19:42:54.661Z,1.80
2022-11-16T19:45:34.513Z,2.97
2022-11-16T19:48:15.631Z,1.73
2022-11-16T19:50:55.527Z,1.25
2022-11-16T19:53:43.516Z,3.28
2022-11-16T19:56:25.585Z,2.53
2022-11-16T19:59:06.590Z,2.28
2022-11-16T20:01:47.573Z,2.10
2022-11-16T20:04:39.544Z,2.20
2022-11-16T20:07:24.616Z,1.50
2022-11-16T20:10:05.600Z,2.08
2022-11-16T20:12:45.515Z,2.28
2022-11-16T20:15:33.538Z,2.20
2022-11-16T20:18:07.477Z,1.70
2022-11-16T20:20:55.530Z,2.00
2022-11-16T20:23:37.810Z,2.05
2022-11-16T20:26:19.628Z,2.10
2022-11-16T20:29:00.559Z,2.67
2022-11-16T20:31:49.558Z,2.55
2022-11-16T20:34:43.517Z,2.65
2022-11-16T20:37:30.538Z,3.20
2022-11-16T20:40:11.546Z,3.00
2022-11-16T20:42:59.528Z,3.42
2022-11-16T20:45:34.423Z,5.10
2022-11-16T20:48:21.542Z,5.78
2022-11-16T20:50:59.633Z,5.85
2022-11-16T20:53:47.527Z,3.42
2022-11-16T20:56:29.532Z,4.20
2022-11-16T20:59:23.542Z,4.75
2022-11-16T21:02:11.542Z,4.82
2022-11-16T21:04:45.610Z,3.92
2022-11-16T21:07:32.598Z,2.17
2022-11-16T21:10:18.771Z,2.38
2022-11-16T21:13:24.519Z,2.30
2022-11-16T21:16:05.957Z,1.85
2022-11-16T21:18:52.519Z,2.25
2022-11-16T21:21:26.619Z,1.52
2022-11-16T21:24:15.512Z,4.00
2022-11-16T21:26:49.902Z,3.38
2022-11-16T21:29:36.545Z,3.05
2022-11-16T21:32:17.502Z,2.05
2022-11-16T21:35:11.542Z,2.50
2022-11-16T21:37:59.532Z,2.17
2022-11-16T21:40:33.618Z,2.10
2022-11-16T21:43:23.550Z,1.80
2022-11-16T21:45:57.819Z,2.65
2022-11-16T21:48:45.533Z,2.42
2022-11-16T21:51:21.688Z,2.05
2022-11-16T21:54:09.544Z,2.33
2022-11-16T21:56:43.643Z,4.32
2022-11-16T21:59:30.515Z,4.28
2022-11-16T22:02:11.558Z,4.10
2022-11-16T22:05:23.518Z,1.30
2022-11-16T22:08:21.556Z,2.75
2022-11-16T22:16:46.576Z,1.60
2022-11-16T22:19:33.595Z,1.42
2022-11-16T22:22:14.584Z,1.33
2022-11-16T22:25:08.549Z,1.60
2022-11-16T22:28:19.837Z,1.48
2022-11-16T22:30:57.569Z,1.30
2022-11-16T22:33:38.870Z,1.20
2022-11-16T22:36:26.572Z,1.00
2022-11-16T22:39:01.971Z,2.42
2022-11-16T22:41:49.564Z,2.22
2022-11-16T22:44:23.524Z,1.48
2022-11-16T22:47:11.568Z,2.53
2022-11-16T22:49:45.762Z,2.60
2022-11-16T22:52:33.568Z,1.70
2022-11-16T22:55:14.621Z,1.23
2022-11-16T22:57:55.637Z,1.52
2022-11-16T23:00:41.809Z,1.90
2022-11-16T23:03:29.638Z,2.13
2022-11-16T23:06:04.017Z,1.40
2022-11-16T23:08:51.572Z,1.30
2022-11-16T23:11:51.602Z,1.55
2022-11-16T23:14:51.538Z,1.38
2022-11-16T23:17:31.555Z,1.63
2022-11-16T23:20:31.364Z,1.70
2022-11-16T23:23:30.582Z,1.85
2022-11-16T23:26:35.655Z,1.80
2022-11-16T23:29:23.561Z,1.50
2022-11-16T23:32:17.559Z,1.85
2022-11-16T23:35:04.561Z,1.98
2022-11-16T23:37:38.667Z,1.77
2022-11-16T23:40:26.587Z,2.38
2022-11-16T23:43:20.311Z,1.63
2022-11-16T23:46:06.570Z,1.77
2022-11-16T23:48:40.623Z,1.67
2022-11-16T23:51:29.637Z,2.00
2022-11-16T23:54:11.593Z,1.92
2022-11-16T23:57:05.599Z,2.25
2022-11-16T23:59:53.607Z,1.60
